sensor_id;sensor_type;location;lat;lon;timestamp;pressure;altitude;pressure_sealevel;temperature;humidity
36600;BME280;35385;55.668;37.508;2024-01-25T00:00:14;98151.66;;;0.14;100.00
36600;BME280;35385;55.668;37.508;2024-01-25T00:01:15;98154.81;;;0.19;100.00
36600;BME280;35385;55.668;37.508;2024-01-25T00:02:15;98140.94;;;0.17;100.00
36600;BME280;35385;55.668;37.508;2024-01-25T00:03:15;98140.94;;;0.17;100.00
36600;BME280;35385;55.668;37.508;2024-01-25T00:04:16;98130.44;;;0.17;100.00
36600;BME280;35385;55.668;37.508;2024-01-25T00:05:16;98139.72;;;0.23;100.00
36600;BME280;35385;55.668;37.508;2024-01-25T00:06:17;98130.59;;;0.28;100.00
36600;BME280;35385;55.668;37.508;2024-01-25T00:07:17;98140.44;;;0.25;100.00
36600;BME280;35385;55.668;37.508;2024-01-25T00:08:18;98137.06;;;0.23;100.00
36600;BME280;35385;55.668;37.508;2024-01-25T00:09:18;98139.25;;;0.16;100.00
36600;BME280;35385;55.668;37.508;2024-01-25T00:10:19;98130.44;;;0.17;100.00
36600;BME280;35385;55.668;37.508;2024-01-25T00:11:19;98128.75;;;0.16;100.00
36600;BME280;35385;55.668;37.508;2024-01-25T00:12:20;98133.81;;;0.19;100.00
36600;BME280;35385;55.668;37.508;2024-01-25T00:13:20;98126.56;;;0.23;100.00
36600;BME280;35385;55.668;37.508;2024-01-25T00:14:20;98135.28;;;0.23;100.00
36600;BME280;35385;55.668;37.508;2024-01-25T00:15:22;98119.44;;;0.25;100.00
36600;BME280;35385;55.668;37.508;2024-01-25T00:16:22;98129.09;;;0.24;100.00
36600;BME280;35385;55.668;37.508;2024-01-25T00:17:22;98127.31;;;0.25;100.00
36600;BME280;35385;55.668;37.508;2024-01-25T00:18:23;98120.78;;;0.18;100.00
36600;BME280;35385;55.668;37.508;2024-01-25T00:19:23;98117.41;;;0.16;100.00
36600;BME280;35385;55.668;37.508;2024-01-25T00:20:24;98118.25;;;0.16;100.00
36600;BME280;35385;55.668;37.508;2024-01-25T00:21:24;98118.78;;;0.21;100.00
36600;BME280;35385;55.668;37.508;2024-01-25T00:22:24;98123.09;;;0.22;100.00
36600;BME280;35385;55.668;37.508;2024-01-25T00:23:25;98122.34;;;0.20;100.00
36600;BME280;35385;55.668;37.508;2024-01-25T00:24:26;98109.41;;;0.17;100.00
36600;BME280;35385;55.668;37.508;2024-01-25T00:25:27;98111.09;;;0.18;100.00
36600;BME280;35385;55.668;37.508;2024-01-25T00:26:27;98114.47;;;0.20;100.00
36600;BME280;35385;55.668;37.508;2024-01-25T00:27:27;98123.09;;;0.22;100.00
36600;BME280;35385;55.668;37.508;2024-01-25T00:28:28;98111.53;;;0.12;100.00
36600;BME280;35385;55.668;37.508;2024-01-25T00:29:30;98110.88;;;0.09;100.00
36600;BME280;35385;55.668;37.508;2024-01-25T00:30:30;98113.59;;;0.07;100.00
36600;BME280;35385;55.668;37.508;2024-01-25T00:31:31;98100.56;;;0.06;100.00
36600;BME280;35385;55.668;37.508;2024-01-25T00:32:31;98103.84;;;0.09;100.00
36600;BME280;35385;55.668;37.508;2024-01-25T00:33:32;98099.34;;;0.11;100.00
36600;BME280;35385;55.668;37.508;2024-01-25T00:34:32;98103.44;;;0.15;100.00
36600;BME280;35385;55.668;37.508;2024-01-25T00:35:33;98108.69;;;0.15;100.00
36600;BME280;35385;55.668;37.508;2024-01-25T00:36:33;98105.84;;;0.18;100.00
36600;BME280;35385;55.668;37.508;2024-01-25T00:37:34;98106.50;;;0.22;100.00
36600;BME280;35385;55.668;37.508;2024-01-25T00:38:35;98106.41;;;0.23;100.00
36600;BME280;35385;55.668;37.508;2024-01-25T00:39:35;98094.03;;;0.25;100.00
36600;BME280;35385;55.668;37.508;2024-01-25T00:40:36;98097.50;;;0.26;100.00
36600;BME280;35385;55.668;37.508;2024-01-25T00:41:37;98102.09;;;0.22;100.00
36600;BME280;35385;55.668;37.508;2024-01-25T00:42:40;98101.06;;;0.25;100.00
36600;BME280;35385;55.668;37.508;2024-01-25T00:43:41;98093.50;;;0.33;100.00
36600;BME280;35385;55.668;37.508;2024-01-25T00:44:42;98096.22;;;0.31;100.00
36600;BME280;35385;55.668;37.508;2024-01-25T00:45:42;98093.84;;;0.28;100.00
36600;BME280;35385;55.668;37.508;2024-01-25T00:46:43;98098.53;;;0.23;100.00
36600;BME280;35385;55.668;37.508;2024-01-25T00:47:45;98088.03;;;0.23;100.00
36600;BME280;35385;55.668;37.508;2024-01-25T00:48:46;98084.28;;;0.27;100.00
36600;BME280;35385;55.668;37.508;2024-01-25T00:49:47;98090.66;;;0.23;100.00
36600;BME280;35385;55.668;37.508;2024-01-25T00:50:47;98092.72;;;0.18;100.00
36600;BME280;35385;55.668;37.508;2024-01-25T00:51:48;98085.69;;;0.19;100.00
36600;BME280;35385;55.668;37.508;2024-01-25T00:52:48;98086.34;;;0.22;100.00
36600;BME280;35385;55.668;37.508;2024-01-25T00:53:49;98085.13;;;0.28;100.00
36600;BME280;35385;55.668;37.508;2024-01-25T00:54:49;98088.16;;;0.34;100.00
36600;BME280;35385;55.668;37.508;2024-01-25T00:55:50;98083.47;;;0.40;100.00
36600;BME280;35385;55.668;37.508;2024-01-25T00:56:50;98084.31;;;0.40;100.00
36600;BME280;35385;55.668;37.508;2024-01-25T00:57:52;98074.00;;;0.37;100.00
36600;BME280;35385;55.668;37.508;2024-01-25T00:58:53;98089.09;;;0.33;100.00
36600;BME280;35385;55.668;37.508;2024-01-25T00:59:54;98084.28;;;0.27;100.00
36600;BME280;35385;55.668;37.508;2024-01-25T01:00:54;98077.44;;;0.25;100.00
36600;BME280;35385;55.668;37.508;2024-01-25T01:01:55;98071.84;;;0.29;100.00
36600;BME280;35385;55.668;37.508;2024-01-25T01:02:56;98074.63;;;0.41;100.00
36600;BME280;35385;55.668;37.508;2024-01-25T01:03:58;98072.75;;;0.43;100.00
36600;BME280;35385;55.668;37.508;2024-01-25T01:04:59;98066.84;;;0.39;100.00
36600;BME280;35385;55.668;37.508;2024-01-25T01:05:59;98073.16;;;0.37;100.00
36600;BME280;35385;55.668;37.508;2024-01-25T01:07:00;98063.38;;;0.39;100.00
36600;BME280;35385;55.668;37.508;2024-01-25T01:08:00;98065.59;;;0.45;100.00
36600;BME280;35385;55.668;37.508;2024-01-25T01:09:01;98064.16;;;0.53;100.00
36600;BME280;35385;55.668;37.508;2024-01-25T01:10:01;98059.09;;;0.50;100.00
36600;BME280;35385;55.668;37.508;2024-01-25T01:11:04;98055.72;;;0.48;100.00
36600;BME280;35385;55.668;37.508;2024-01-25T01:12:04;98055.22;;;0.43;100.00
36600;BME280;35385;55.668;37.508;2024-01-25T01:13:05;98059.63;;;0.43;100.00
36600;BME280;35385;55.668;37.508;2024-01-25T01:14:05;98047.91;;;0.34;100.00
36600;BME280;35385;55.668;37.508;2024-01-25T01:15:05;98053.91;;;0.36;100.00
36600;BME280;35385;55.668;37.508;2024-01-25T01:16:06;98051.38;;;0.34;100.00
36600;BME280;35385;55.668;37.508;2024-01-25T01:17:06;98044.97;;;0.26;100.00
36600;BME280;35385;55.668;37.508;2024-01-25T01:18:07;98046.22;;;0.20;100.00
36600;BME280;35385;55.668;37.508;2024-01-25T01:19:07;98047.91;;;0.21;100.00
36600;BME280;35385;55.668;37.508;2024-01-25T01:20:08;98042.84;;;0.18;100.00
36600;BME280;35385;55.668;37.508;2024-01-25T01:21:08;98046.84;;;0.24;100.00
36600;BME280;35385;55.668;37.508;2024-01-25T01:22:09;98036.06;;;0.28;100.00
36600;BME280;35385;55.668;37.508;2024-01-25T01:23:09;98037.31;;;0.35;100.00
36600;BME280;35385;55.668;37.508;2024-01-25T01:24:10;98037.97;;;0.39;100.00
36600;BME280;35385;55.668;37.508;2024-01-25T01:25:11;98042.75;;;0.32;100.00
36600;BME280;35385;55.668;37.508;2024-01-25T01:26:11;98040.22;;;0.31;100.00
36600;BME280;35385;55.668;37.508;2024-01-25T01:27:12;98043.50;;;0.34;100.00
36600;BME280;35385;55.668;37.508;2024-01-25T01:28:12;98031.50;;;0.30;100.00
36600;BME280;35385;55.668;37.508;2024-01-25T01:29:12;98033.84;;;0.35;100.00
36600;BME280;35385;55.668;37.508;2024-01-25T01:30:13;98033.66;;;0.38;100.00
36600;BME280;35385;55.668;37.508;2024-01-25T01:31:13;98038.44;;;0.31;100.00
36600;BME280;35385;55.668;37.508;2024-01-25T01:32:14;98035.81;;;0.31;100.00
36600;BME280;35385;55.668;37.508;2024-01-25T01:33:14;98033.94;;;0.33;100.00
36600;BME280;35385;55.668;37.508;2024-01-25T01:34:15;98031.50;;;0.30;100.00
36600;BME280;35385;55.668;37.508;2024-01-25T01:35:17;98029.00;;;0.29;100.00
36600;BME280;35385;55.668;37.508;2024-01-25T01:36:18;98035.09;;;0.29;100.00
36600;BME280;35385;55.668;37.508;2024-01-25T01:37:18;98030.56;;;0.31;100.00
36600;BME280;35385;55.668;37.508;2024-01-25T01:38:19;98031.66;;;0.42;100.00
36600;BME280;35385;55.668;37.508;2024-01-25T01:39:19;98030.38;;;0.47;100.00
36600;BME280;35385;55.668;37.508;2024-01-25T01:40:19;98032.19;;;0.47;100.00
36600;BME280;35385;55.668;37.508;2024-01-25T01:41:20;98026.31;;;0.43;100.00
36600;BME280;35385;55.668;37.508;2024-01-25T01:42:21;98034.50;;;0.39;100.00
36600;BME280;35385;55.668;37.508;2024-01-25T01:43:21;98033.84;;;0.35;100.00
36600;BME280;35385;55.668;37.508;2024-01-25T01:44:23;98035.94;;;0.30;100.00
36600;BME280;35385;55.668;37.508;2024-01-25T01:45:23;98029.22;;;0.26;100.00
36600;BME280;35385;55.668;37.508;2024-01-25T01:46:31;98031.94;;;0.24;100.00
36600;BME280;35385;55.668;37.508;2024-01-25T01:47:32;98022.38;;;0.23;100.00
36600;BME280;35385;55.668;37.508;2024-01-25T01:48:32;98022.47;;;0.22;100.00
36600;BME280;35385;55.668;37.508;2024-01-25T01:49:33;98021.44;;;0.24;100.00
36600;BME280;35385;55.668;37.508;2024-01-25T01:50:34;98008.63;;;0.32;100.00
36600;BME280;35385;55.668;37.508;2024-01-25T01:51:34;98022.09;;;0.41;100.00
36600;BME280;35385;55.668;37.508;2024-01-25T01:52:35;98014.97;;;0.43;100.00
36600;BME280;35385;55.668;37.508;2024-01-25T01:53:36;98019.78;;;0.36;100.00
36600;BME280;35385;55.668;37.508;2024-01-25T01:54:37;98013.69;;;0.35;100.00
36600;BME280;35385;55.668;37.508;2024-01-25T01:55:37;98015.34;;;0.24;100.00
36600;BME280;35385;55.668;37.508;2024-01-25T01:56:39;98013.84;;;0.20;100.00
36600;BME280;35385;55.668;37.508;2024-01-25T01:57:40;98003.78;;;0.26;100.00
36600;BME280;35385;55.668;37.508;2024-01-25T01:58:41;98023.97;;;0.26;100.00
36600;BME280;35385;55.668;37.508;2024-01-25T01:59:42;98013.09;;;0.18;100.00
36600;BME280;35385;55.668;37.508;2024-01-25T02:00:42;98001.88;;;0.16;100.00
36600;BME280;35385;55.668;37.508;2024-01-25T02:01:43;98023.22;;;0.24;100.00
36600;BME280;35385;55.668;37.508;2024-01-25T02:02:44;98014.78;;;0.19;100.00
36600;BME280;35385;55.668;37.508;2024-01-25T02:03:45;98014.16;;;0.15;100.00
36600;BME280;35385;55.668;37.508;2024-01-25T02:04:45;98018.97;;;0.09;100.00
36600;BME280;35385;55.668;37.508;2024-01-25T02:05:45;98017.59;;;0.03;100.00
36600;BME280;35385;55.668;37.508;2024-01-25T02:06:46;98009.59;;;-0.08;100.00
36600;BME280;35385;55.668;37.508;2024-01-25T02:07:47;98009.94;;;0.00;100.00
36600;BME280;35385;55.668;37.508;2024-01-25T02:08:47;98013.63;;;0.10;100.00
36600;BME280;35385;55.668;37.508;2024-01-25T02:09:48;98013.44;;;0.13;100.00
36600;BME280;35385;55.668;37.508;2024-01-25T02:10:48;98014.91;;;0.17;100.00
36600;BME280;35385;55.668;37.508;2024-01-25T02:11:58;98011.53;;;0.15;100.00
36600;BME280;35385;55.668;37.508;2024-01-25T02:12:58;98015.84;;;0.16;100.00
36600;BME280;35385;55.668;37.508;2024-01-25T02:13:59;98011.75;;;0.12;100.00
36600;BME280;35385;55.668;37.508;2024-01-25T02:14:59;98005.75;;;0.10;100.00
36600;BME280;35385;55.668;37.508;2024-01-25T02:16:00;98014.69;;;0.08;100.00
36600;BME280;35385;55.668;37.508;2024-01-25T02:17:20;98006.50;;;0.12;100.00
36600;BME280;35385;55.668;37.508;2024-01-25T02:18:21;98010.06;;;0.11;100.00
36600;BME280;35385;55.668;37.508;2024-01-25T02:19:21;98016.66;;;0.04;100.00
36600;BME280;35385;55.668;37.508;2024-01-25T02:20:22;98019.88;;;-0.05;100.00
36600;BME280;35385;55.668;37.508;2024-01-25T02:21:22;98007.25;;;-0.13;100.00
36600;BME280;35385;55.668;37.508;2024-01-25T02:22:22;98015.69;;;-0.08;100.00
36600;BME280;35385;55.668;37.508;2024-01-25T02:23:23;98014.44;;;-0.02;100.00
36600;BME280;35385;55.668;37.508;2024-01-25T02:24:23;98011.81;;;-0.02;100.00
36600;BME280;35385;55.668;37.508;2024-01-25T02:25:24;98008.13;;;0.00;100.00
36600;BME280;35385;55.668;37.508;2024-01-25T02:26:25;98014.88;;;0.05;100.00
36600;BME280;35385;55.668;37.508;2024-01-25T02:27:25;98019.91;;;0.08;100.00
36600;BME280;35385;55.668;37.508;2024-01-25T02:28:25;98020.03;;;0.19;100.00
36600;BME280;35385;55.668;37.508;2024-01-25T02:29:26;98018.69;;;0.13;100.00
36600;BME280;35385;55.668;37.508;2024-01-25T02:30:26;98014.22;;;0.01;100.00
36600;BME280;35385;55.668;37.508;2024-01-25T02:31:27;98016.13;;;-0.01;100.00
36600;BME280;35385;55.668;37.508;2024-01-25T02:32:27;98011.72;;;-0.01;100.00
36600;BME280;35385;55.668;37.508;2024-01-25T02:33:28;98010.34;;;-0.06;100.00
36600;BME280;35385;55.668;37.508;2024-01-25T02:34:28;98006.22;;;-0.10;100.00
36600;BME280;35385;55.668;37.508;2024-01-25T02:35:28;98006.97;;;-0.08;100.00
36600;BME280;35385;55.668;37.508;2024-01-25T02:36:29;98001.81;;;-0.10;100.00
36600;BME280;35385;55.668;37.508;2024-01-25T02:37:29;98005.78;;;-0.17;100.00
36600;BME280;35385;55.668;37.508;2024-01-25T02:38:30;97998.66;;;-0.15;100.00
36600;BME280;35385;55.668;37.508;2024-01-25T02:39:30;98002.56;;;-0.08;100.00
36600;BME280;35385;55.668;37.508;2024-01-25T02:40:30;97997.41;;;-0.09;100.00
36600;BME280;35385;55.668;37.508;2024-01-25T02:41:31;98009.59;;;-0.08;100.00
36600;BME280;35385;55.668;37.508;2024-01-25T02:42:32;98004.53;;;-0.11;100.00
36600;BME280;35385;55.668;37.508;2024-01-25T02:43:32;97998.44;;;-0.12;100.00
36600;BME280;35385;55.668;37.508;2024-01-25T02:44:33;98004.94;;;-0.17;100.00
36600;BME280;35385;55.668;37.508;2024-01-25T02:45:33;97998.97;;;-0.19;100.00
36600;BME280;35385;55.668;37.508;2024-01-25T02:46:34;97996.53;;;-0.22;100.00
36600;BME280;35385;55.668;37.508;2024-01-25T02:47:34;97988.66;;;-0.22;100.00
36600;BME280;35385;55.668;37.508;2024-01-25T02:48:34;98001.38;;;-0.16;100.00
36600;BME280;35385;55.668;37.508;2024-01-25T02:49:35;97994.22;;;-0.14;100.00
36600;BME280;35385;55.668;37.508;2024-01-25T02:50:35;97995.06;;;-0.14;100.00
36600;BME280;35385;55.668;37.508;2024-01-25T02:51:36;97988.16;;;-0.15;100.00
36600;BME280;35385;55.668;37.508;2024-01-25T02:52:36;97988.16;;;-0.15;100.00
36600;BME280;35385;55.668;37.508;2024-01-25T02:53:37;97996.22;;;-0.18;100.00
36600;BME280;35385;55.668;37.508;2024-01-25T02:54:37;97990.66;;;-0.13;100.00
36600;BME280;35385;55.668;37.508;2024-01-25T02:55:37;97999.47;;;-0.14;100.00
36600;BME280;35385;55.668;37.508;2024-01-25T02:56:38;97993.41;;;-0.15;100.00
36600;BME280;35385;55.668;37.508;2024-01-25T02:57:38;97990.66;;;-0.13;100.00
36600;BME280;35385;55.668;37.508;2024-01-25T02:58:39;97981.25;;;-0.16;100.00
36600;BME280;35385;55.668;37.508;2024-01-25T02:59:39;97986.34;;;-0.14;100.00
36600;BME280;35385;55.668;37.508;2024-01-25T03:00:39;97976.84;;;-0.15;100.00
36600;BME280;35385;55.668;37.508;2024-01-25T03:01:40;97985.84;;;-0.19;100.00
36600;BME280;35385;55.668;37.508;2024-01-25T03:02:41;97989.41;;;-0.20;100.00
36600;BME280;35385;55.668;37.508;2024-01-25T03:03:42;97974.31;;;-0.17;100.00
36600;BME280;35385;55.668;37.508;2024-01-25T03:04:42;97981.44;;;-0.19;100.00
36600;BME280;35385;55.668;37.508;2024-01-25T03:05:43;97980.78;;;-0.22;100.00
36600;BME280;35385;55.668;37.508;2024-01-25T03:06:43;97980.50;;;-0.18;100.00
36600;BME280;35385;55.668;37.508;2024-01-25T03:07:43;97980.59;;;-0.19;100.00
36600;BME280;35385;55.668;37.508;2024-01-25T03:08:44;97987.84;;;-0.10;100.00
36600;BME280;35385;55.668;37.508;2024-01-25T03:09:44;97977.44;;;-0.12;100.00
36600;BME280;35385;55.668;37.508;2024-01-25T03:10:46;97983.72;;;-0.14;100.00
36600;BME280;35385;55.668;37.508;2024-01-25T03:11:46;97975.34;;;-0.19;100.00
36600;BME280;35385;55.668;37.508;2024-01-25T03:12:47;97969.56;;;-0.12;100.00
36600;BME280;35385;55.668;37.508;2024-01-25T03:13:47;97969.28;;;-0.07;100.00
36600;BME280;35385;55.668;37.508;2024-01-25T03:14:48;97969.47;;;-0.10;100.00
36600;BME280;35385;55.668;37.508;2024-01-25T03:15:48;97967.03;;;-0.13;100.00
36600;BME280;35385;55.668;37.508;2024-01-25T03:16:49;97968.81;;;-0.14;100.00
36600;BME280;35385;55.668;37.508;2024-01-25T03:17:49;97968.13;;;-0.16;100.00
36600;BME280;35385;55.668;37.508;2024-01-25T03:18:50;97965.50;;;-0.16;100.00
36600;BME280;35385;55.668;37.508;2024-01-25T03:19:50;97971.69;;;-0.17;100.00
36600;BME280;35385;55.668;37.508;2024-01-25T03:20:50;97971.97;;;-0.21;100.00
36600;BME280;35385;55.668;37.508;2024-01-25T03:21:51;97971.03;;;-0.20;100.00
36600;BME280;35385;55.668;37.508;2024-01-25T03:22:52;97968.06;;;-0.28;100.00
36600;BME280;35385;55.668;37.508;2024-01-25T03:23:52;97964.81;;;-0.32;100.00
36600;BME280;35385;55.668;37.508;2024-01-25T03:24:52;97958.72;;;-0.32;100.00
36600;BME280;35385;55.668;37.508;2024-01-25T03:25:53;97961.25;;;-0.31;100.00
36600;BME280;35385;55.668;37.508;2024-01-25T03:26:53;97964.28;;;-0.24;100.00
36600;BME280;35385;55.668;37.508;2024-01-25T03:27:54;97958.84;;;-0.21;100.00
36600;BME280;35385;55.668;37.508;2024-01-25T03:28:54;97961.47;;;-0.21;100.00
36600;BME280;35385;55.668;37.508;2024-01-25T03:29:55;97958.09;;;-0.23;100.00
36600;BME280;35385;55.668;37.508;2024-01-25T03:30:55;97957.06;;;-0.21;100.00
36600;BME280;35385;55.668;37.508;2024-01-25T03:31:55;97953.72;;;-0.10;100.00
36600;BME280;35385;55.668;37.508;2024-01-25T03:32:56;97953.91;;;-0.13;100.00
36600;BME280;35385;55.668;37.508;2024-01-25T03:33:56;97964.94;;;-0.21;100.00
36600;BME280;35385;55.668;37.508;2024-01-25T03:34:57;97965.22;;;-0.25;100.00
36600;BME280;35385;55.668;37.508;2024-01-25T03:35:57;97960.25;;;-0.16;100.00
36600;BME280;35385;55.668;37.508;2024-01-25T03:37:01;97956.97;;;-0.19;100.00
36600;BME280;35385;55.668;37.508;2024-01-25T03:38:01;97963.16;;;-0.20;100.00
36600;BME280;35385;55.668;37.508;2024-01-25T03:39:02;97962.88;;;-0.16;100.00
36600;BME280;35385;55.668;37.508;2024-01-25T03:40:03;97967.78;;;-0.11;100.00
36600;BME280;35385;55.668;37.508;2024-01-25T03:41:05;97961.09;;;-0.15;100.00
36600;BME280;35385;55.668;37.508;2024-01-25T03:42:05;97957.72;;;-0.17;100.00
36600;BME280;35385;55.668;37.508;2024-01-25T03:43:05;97955.00;;;-0.16;100.00
36600;BME280;35385;55.668;37.508;2024-01-25T03:44:06;97960.44;;;-0.19;100.00
36600;BME280;35385;55.668;37.508;2024-01-25T03:45:06;97940.88;;;-0.27;100.00
36600;BME280;35385;55.668;37.508;2024-01-25T03:46:07;97955.28;;;-0.20;100.00
36600;BME280;35385;55.668;37.508;2024-01-25T03:47:07;97953.31;;;-0.17;100.00
36600;BME280;35385;55.668;37.508;2024-01-25T03:48:08;97950.78;;;-0.18;100.00
36600;BME280;35385;55.668;37.508;2024-01-25T03:49:08;97953.16;;;-0.28;100.00
36600;BME280;35385;55.668;37.508;2024-01-25T03:50:08;97949.69;;;-0.28;100.00
36600;BME280;35385;55.668;37.508;2024-01-25T03:51:09;97941.81;;;-0.28;100.00
36600;BME280;35385;55.668;37.508;2024-01-25T03:52:09;97945.63;;;-0.20;100.00
36600;BME280;35385;55.668;37.508;2024-01-25T03:53:10;97955.19;;;-0.19;100.00
36600;BME280;35385;55.668;37.508;2024-01-25T03:54:10;97941.28;;;-0.33;100.00
36600;BME280;35385;55.668;37.508;2024-01-25T03:55:11;97945.06;;;-0.38;100.00
36600;BME280;35385;55.668;37.508;2024-01-25T03:56:11;97946.28;;;-0.43;100.00
36600;BME280;35385;55.668;37.508;2024-01-25T03:57:13;97944.41;;;-0.41;100.00
36600;BME280;35385;55.668;37.508;2024-01-25T03:58:13;97949.66;;;-0.41;100.00
36600;BME280;35385;55.668;37.508;2024-01-25T03:59:13;97940.25;;;-0.31;100.00
36600;BME280;35385;55.668;37.508;2024-01-25T04:00:14;97938.97;;;-0.38;100.00
36600;BME280;35385;55.668;37.508;2024-01-25T04:01:15;97932.03;;;-0.39;100.00
36600;BME280;35385;55.668;37.508;2024-01-25T04:02:15;97939.81;;;-0.38;100.00
36600;BME280;35385;55.668;37.508;2024-01-25T04:03:15;97940.03;;;-0.28;100.00
36600;BME280;35385;55.668;37.508;2024-01-25T04:04:16;97942.13;;;-0.33;100.00
36600;BME280;35385;55.668;37.508;2024-01-25T04:05:16;97934.75;;;-0.41;100.00
36600;BME280;35385;55.668;37.508;2024-01-25T04:06:17;97934.66;;;-0.39;100.00
36600;BME280;35385;55.668;37.508;2024-01-25T04:07:17;97939.41;;;-0.31;100.00
36600;BME280;35385;55.668;37.508;2024-01-25T04:08:18;97946.53;;;-0.33;100.00
36600;BME280;35385;55.668;37.508;2024-01-25T04:09:18;97938.75;;;-0.35;100.00
36600;BME280;35385;55.668;37.508;2024-01-25T04:10:18;97938.16;;;-0.26;100.00
36600;BME280;35385;55.668;37.508;2024-01-25T04:11:19;97933.53;;;-0.22;100.00
36600;BME280;35385;55.668;37.508;2024-01-25T04:12:19;97937.72;;;-0.32;100.00
36600;BME280;35385;55.668;37.508;2024-01-25T04:13:20;97943.38;;;-0.39;100.00
36600;BME280;35385;55.668;37.508;2024-01-25T04:14:20;97935.41;;;-0.37;100.00
36600;BME280;35385;55.668;37.508;2024-01-25T04:15:21;97938.31;;;-0.42;100.00
36600;BME280;35385;55.668;37.508;2024-01-25T04:16:21;97941.16;;;-0.45;100.00
36600;BME280;35385;55.668;37.508;2024-01-25T04:17:21;97931.78;;;-0.49;100.00
36600;BME280;35385;55.668;37.508;2024-01-25T04:18:22;97933.28;;;-0.45;100.00
36600;BME280;35385;55.668;37.508;2024-01-25T04:19:22;97937.03;;;-0.49;100.00
36600;BME280;35385;55.668;37.508;2024-01-25T04:20:23;97937.03;;;-0.49;100.00
36600;BME280;35385;55.668;37.508;2024-01-25T04:21:23;97943.22;;;-0.50;100.00
36600;BME280;35385;55.668;37.508;2024-01-25T04:22:23;97939.66;;;-0.49;100.00
36600;BME280;35385;55.668;37.508;2024-01-25T04:23:24;97937.97;;;-0.50;100.00
36600;BME280;35385;55.668;37.508;2024-01-25T04:24:24;97927.59;;;-0.51;100.00
36600;BME280;35385;55.668;37.508;2024-01-25T04:25:25;97937.47;;;-0.42;100.00
36600;BME280;35385;55.668;37.508;2024-01-25T04:26:25;97949.34;;;-0.37;100.00
36600;BME280;35385;55.668;37.508;2024-01-25T04:27:26;97934.22;;;-0.46;100.00
36600;BME280;35385;55.668;37.508;2024-01-25T04:28:26;97941.34;;;-0.48;100.00
36600;BME280;35385;55.668;37.508;2024-01-25T04:29:26;97937.88;;;-0.48;100.00
36600;BME280;35385;55.668;37.508;2024-01-25T04:30:27;97943.31;;;-0.51;100.00
36600;BME280;35385;55.668;37.508;2024-01-25T04:31:27;97939.22;;;-0.55;100.00
36600;BME280;35385;55.668;37.508;2024-01-25T04:32:28;97939.22;;;-0.55;100.00
36600;BME280;35385;55.668;37.508;2024-01-25T04:33:28;97941.00;;;-0.56;100.00
36600;BME280;35385;55.668;37.508;2024-01-25T04:34:29;97937.94;;;-0.62;100.00
36600;BME280;35385;55.668;37.508;2024-01-25T04:35:29;97945.91;;;-0.64;100.00
36600;BME280;35385;55.668;37.508;2024-01-25T04:36:31;97937.94;;;-0.62;100.00
36600;BME280;35385;55.668;37.508;2024-01-25T04:37:32;97940.06;;;-0.55;100.00
36600;BME280;35385;55.668;37.508;2024-01-25T04:38:32;97943.41;;;-0.53;100.00
36600;BME280;35385;55.668;37.508;2024-01-25T04:39:33;97939.47;;;-0.46;100.00
36600;BME280;35385;55.668;37.508;2024-01-25T04:40:33;97934.63;;;-0.52;100.00
36600;BME280;35385;55.668;37.508;2024-01-25T04:41:33;97936.59;;;-0.55;100.00
36600;BME280;35385;55.668;37.508;2024-01-25T04:42:34;97943.63;;;-0.56;100.00
36600;BME280;35385;55.668;37.508;2024-01-25T04:43:34;97933.69;;;-0.51;100.00
36600;BME280;35385;55.668;37.508;2024-01-25T04:44:38;97941.09;;;-0.57;100.00
36600;BME280;35385;55.668;37.508;2024-01-25T04:45:38;97942.47;;;-0.52;100.00
36600;BME280;35385;55.668;37.508;2024-01-25T04:46:38;97944.16;;;-0.51;100.00
36600;BME280;35385;55.668;37.508;2024-01-25T04:47:39;97948.56;;;-0.51;100.00
36600;BME280;35385;55.668;37.508;2024-01-25T04:48:40;97941.44;;;-0.49;100.00
36600;BME280;35385;55.668;37.508;2024-01-25T04:49:40;97945.66;;;-0.47;100.00
36600;BME280;35385;55.668;37.508;2024-01-25T04:50:40;97954.06;;;-0.42;100.00
36600;BME280;35385;55.668;37.508;2024-01-25T04:51:41;97947.44;;;-0.47;100.00
36600;BME280;35385;55.668;37.508;2024-01-25T04:52:41;97954.47;;;-0.48;100.00
36600;BME280;35385;55.668;37.508;2024-01-25T04:53:42;97952.63;;;-0.60;100.00
36600;BME280;35385;55.668;37.508;2024-01-25T04:54:42;97952.09;;;-0.65;100.00
36600;BME280;35385;55.668;37.508;2024-01-25T04:55:42;97950.41;;;-0.66;100.00
36600;BME280;35385;55.668;37.508;2024-01-25T04:56:43;97944.88;;;-0.61;100.00
36600;BME280;35385;55.668;37.508;2024-01-25T04:57:43;97939.63;;;-0.61;100.00
36600;BME280;35385;55.668;37.508;2024-01-25T04:58:44;97940.28;;;-0.58;100.00
36600;BME280;35385;55.668;37.508;2024-01-25T04:59:44;97942.25;;;-0.61;100.00
36600;BME280;35385;55.668;37.508;2024-01-25T05:00:45;97940.47;;;-0.61;100.00
36600;BME280;35385;55.668;37.508;2024-01-25T05:01:45;97950.63;;;-0.56;100.00
36600;BME280;35385;55.668;37.508;2024-01-25T05:02:45;97938.38;;;-0.56;100.00
36600;BME280;35385;55.668;37.508;2024-01-25T05:03:46;97937.09;;;-0.63;100.00
36600;BME280;35385;55.668;37.508;2024-01-25T05:04:46;97935.31;;;-0.62;100.00
36600;BME280;35385;55.668;37.508;2024-01-25T05:05:47;97929.56;;;-0.55;100.00
36600;BME280;35385;55.668;37.508;2024-01-25T05:06:47;97937.44;;;-0.55;100.00
36600;BME280;35385;55.668;37.508;2024-01-25T05:07:48;97939.13;;;-0.54;100.00
36600;BME280;35385;55.668;37.508;2024-01-25T05:08:48;97934.38;;;-0.61;100.00
36600;BME280;35385;55.668;37.508;2024-01-25T05:09:48;97937.84;;;-0.61;100.00
36600;BME280;35385;55.668;37.508;2024-01-25T05:10:49;97936.59;;;-0.55;100.00
36600;BME280;35385;55.668;37.508;2024-01-25T05:11:49;97931.44;;;-0.57;100.00
36600;BME280;35385;55.668;37.508;2024-01-25T05:12:50;97934.91;;;-0.56;100.00
36600;BME280;35385;55.668;37.508;2024-01-25T05:13:50;97932.59;;;-0.61;100.00
36600;BME280;35385;55.668;37.508;2024-01-25T05:14:50;97936.31;;;-0.51;100.00